Time;durP1;ratioP1;P1;durP2;ratioP2;P2;SDS_P1;SDS_P2;PMS_P1;PMS_P2;Temp;Humidity;BMP_temperature;BMP_pressure;BME280_temperature;BME280_humidity;BME280_pressure;Samples;Min_cycle;Max_cycle;Signal;HPM_P1;HPM_P2
2021/06/02 00:00:48;;;;;;;9.93;4.03;;;14.00;87.10;;;;;;4996562;28;20030;-79
2021/06/02 00:03:18;;;;;;;9.27;4.45;;;14.00;99.90;;;;;;4994558;28;20053;-79
2021/06/02 00:05:47;;;;;;;6.25;3.83;;;14.00;99.90;;;;;;4994666;28;20030;-79
2021/06/02 00:08:14;;;;;;;9.15;4.40;;;14.00;1.00;;;;;;4995006;28;20026;-80
2021/06/02 00:10:39;;;;;;;6.03;3.97;;;13.90;1.00;;;;;;5010408;28;20026;-79
2021/06/02 00:13:06;;;;;;;9.55;4.38;;;13.80;1.00;;;;;;5010438;28;20025;-80
2021/06/02 00:15:32;;;;;;;9.02;4.00;;;13.70;99.90;;;;;;4995186;28;20023;-79
2021/06/02 00:18:00;;;;;;;11.35;5.13;;;13.60;1.00;;;;;;4996362;28;20041;-79
2021/06/02 00:20:26;;;;;;;7.80;4.05;;;13.50;99.90;;;;;;4995703;28;20101;-79
2021/06/02 00:22:51;;;;;;;8.75;4.60;;;13.50;1.00;;;;;;5011098;28;20041;-79
2021/06/02 00:25:17;;;;;;;7.03;4.75;;;13.50;99.90;;;;;;5010658;28;20022;-80
2021/06/02 00:27:45;;;;;;;12.30;4.75;;;13.50;99.90;;;;;;4995586;28;20122;-80
2021/06/02 00:30:11;;;;;;;7.63;4.13;;;13.50;99.90;;;;;;4995154;28;20107;-79
2021/06/02 00:32:38;;;;;;;6.75;3.85;;;13.50;99.90;;;;;;4995912;28;20461;-78
2021/06/02 00:35:06;;;;;;;6.07;4.22;;;13.50;99.90;;;;;;4994077;28;20058;-79
2021/06/02 00:37:32;;;;;;;6.75;3.42;;;13.40;99.90;;;;;;4995626;28;20033;-79
2021/06/02 00:39:58;;;;;;;5.40;3.25;;;13.40;99.90;;;;;;4994592;28;20030;-80
2021/06/02 00:42:31;;;;;;;9.25;3.83;;;13.40;99.90;;;;;;4994295;28;20353;-79
2021/06/02 00:44:57;;;;;;;5.80;3.35;;;13.30;99.90;;;;;;5010898;28;20510;-79
2021/06/02 00:47:27;;;;;;;5.90;3.25;;;13.30;1.00;;;;;;4995276;28;20030;-79
2021/06/02 00:49:52;;;;;;;3.50;3.00;;;13.20;1.00;;;;;;4995501;28;20018;-80
2021/06/02 00:52:18;;;;;;;6.93;3.63;;;13.20;1.00;;;;;;4997992;28;20479;-80
2021/06/02 00:54:44;;;;;;;2.97;2.67;;;13.10;1.00;;;;;;4995233;28;20026;-79
2021/06/02 00:57:20;;;;;;;4.35;3.22;;;13.10;1.00;;;;;;4996469;28;20566;-79
2021/06/02 00:59:56;;;;;;;3.25;2.90;;;13.10;1.00;;;;;;4996487;28;20157;-78
2021/06/02 01:02:23;;;;;;;3.95;3.47;;;13.00;1.00;;;;;;4996936;28;20053;-79
2021/06/02 01:04:51;;;;;;;3.60;2.78;;;12.90;90.10;;;;;;4996475;28;20026;-79
2021/06/02 01:07:17;;;;;;;6.10;3.45;;;13.00;91.60;;;;;;4995989;28;20483;-79
2021/06/02 01:09:51;;;;;;;3.30;2.70;;;13.00;94.90;;;;;;4995082;28;20022;-80
2021/06/02 01:12:22;;;;;;;3.30;2.97;;;13.00;99.90;;;;;;5010266;28;20065;-79
2021/06/02 01:14:49;;;;;;;3.33;3.03;;;12.90;99.90;;;;;;5016232;28;20018;-79
2021/06/02 01:17:17;;;;;;;6.05;3.40;;;12.90;99.90;;;;;;5015348;28;20122;-80
2021/06/02 01:19:44;;;;;;;5.70;3.42;;;12.90;99.90;;;;;;5014380;28;20109;-78
2021/06/02 01:22:10;;;;;;;3.50;3.20;;;12.80;1.00;;;;;;5013853;28;20026;-79
2021/06/02 01:24:35;;;;;;;8.80;3.60;;;12.90;1.00;;;;;;5012971;28;20061;-78
2021/06/02 01:27:04;;;;;;;4.20;3.50;;;12.80;12.80;;;;;;5010966;28;20467;-78
2021/06/02 01:29:30;;;;;;;4.15;3.63;;;12.80;44.40;;;;;;5007960;28;20022;-78
2021/06/02 01:32:02;;;;;;;10.82;3.75;;;12.70;71.30;;;;;;4994763;28;20022;-78
2021/06/02 01:35:02;;;;;;;5.65;3.63;;;12.60;94.20;;;;;;4996343;28;20023;-78
2021/06/02 01:37:47;;;;;;;6.27;3.53;;;12.60;99.90;;;;;;4996899;28;20022;-78
2021/06/02 01:40:42;;;;;;;3.92;2.90;;;12.60;99.90;;;;;;4996307;28;20097;-77
2021/06/02 01:43:30;;;;;;;4.28;3.50;;;12.50;99.90;;;;;;4996253;28;20475;-78
2021/06/02 01:46:16;;;;;;;3.75;3.45;;;12.40;99.90;;;;;;5010240;28;20034;-78
2021/06/02 01:48:56;;;;;;;4.53;3.67;;;12.40;99.90;;;;;;4996351;28;20027;-79
2021/06/02 01:51:25;;;;;;;3.92;3.53;;;12.40;99.90;;;;;;4999092;28;20030;-81
2021/06/02 01:54:28;;;;;;;4.15;3.65;;;12.30;99.90;;;;;;4998639;28;20026;-80
2021/06/02 01:57:22;;;;;;;5.90;3.80;;;12.30;99.90;;;;;;5010821;28;20038;-78
2021/06/02 02:00:06;;;;;;;4.88;3.53;;;12.30;99.90;;;;;;5013092;28;20030;-79
2021/06/02 02:02:51;;;;;;;5.60;3.85;;;12.20;99.90;;;;;;5013547;28;20022;-79
2021/06/02 02:05:35;;;;;;;6.78;3.92;;;12.10;99.90;;;;;;5013083;28;20027;-80
2021/06/02 02:08:28;;;;;;;8.18;4.65;;;12.00;99.90;;;;;;5008948;28;20027;-79
2021/06/02 02:11:23;;;;;;;6.18;4.38;;;12.00;99.90;;;;;;4999195;28;20029;-79
2021/06/02 02:14:19;;;;;;;4.55;4.10;;;12.00;99.90;;;;;;4995203;28;20092;-79
2021/06/02 02:17:02;;;;;;;6.28;4.55;;;11.90;99.90;;;;;;4997368;28;20169;-79
2021/06/02 02:19:40;;;;;;;4.30;3.90;;;11.90;99.90;;;;;;4997120;28;20027;-80
2021/06/02 02:22:29;;;;;;;4.50;3.92;;;11.90;99.90;;;;;;4996270;28;20515;-79
2021/06/02 02:25:02;;;;;;;4.30;3.70;;;11.80;99.90;;;;;;5006022;28;20443;-78
2021/06/02 02:27:31;;;;;;;6.65;4.88;;;11.80;99.90;;;;;;5005630;28;20018;-78
2021/06/02 02:30:16;;;;;;;4.93;3.85;;;11.80;99.90;;;;;;5004076;28;20018;-79
2021/06/02 02:33:02;;;;;;;7.85;4.90;;;11.80;99.90;;;;;;5004418;28;20014;-79
2021/06/02 02:35:56;;;;;;;4.82;4.22;;;11.80;99.90;;;;;;5005075;28;20033;-78
2021/06/02 02:38:32;;;;;;;8.63;4.03;;;11.80;99.90;;;;;;5004970;28;20023;-79
2021/06/02 02:41:26;;;;;;;8.02;4.70;;;11.70;99.90;;;;;;5003743;28;20050;-78
2021/06/02 02:44:05;;;;;;;6.70;4.22;;;11.60;99.90;;;;;;5005288;28;20464;-79
2021/06/02 02:46:33;;;;;;;6.72;4.65;;;11.60;99.90;;;;;;5007517;28;20050;-80
2021/06/02 02:49:15;;;;;;;5.35;4.70;;;11.70;99.90;;;;;;5002203;28;20029;-80
2021/06/02 02:51:54;;;;;;;5.38;4.88;;;11.70;99.90;;;;;;4999338;28;20052;-80
2021/06/02 02:54:47;;;;;;;7.18;5.25;;;11.70;99.90;;;;;;5000593;28;20027;-79
2021/06/02 02:57:51;;;;;;;6.43;5.45;;;11.60;99.90;;;;;;5001728;28;20023;-79
2021/06/02 03:00:20;;;;;;;8.48;5.43;;;11.50;99.90;;;;;;5000242;28;20490;-79
2021/06/02 03:03:02;;;;;;;4.95;4.45;;;11.50;99.90;;;;;;5000716;28;20018;-79
2021/06/02 03:05:33;;;;;;;6.65;5.40;;;11.50;99.90;;;;;;4999092;28;20110;-80
2021/06/02 03:08:23;;;;;;;7.03;5.15;;;11.40;99.90;;;;;;4998449;28;20022;-79
2021/06/02 03:11:03;;;;;;;6.85;4.53;;;11.30;99.90;;;;;;4998594;28;20030;-80
2021/06/02 03:13:59;;;;;;;7.20;5.28;;;11.40;99.90;;;;;;5014414;28;20026;-80
2021/06/02 03:16:30;;;;;;;6.43;4.53;;;11.40;99.90;;;;;;4998950;28;20062;-80
2021/06/02 03:19:18;;;;;;;6.40;5.03;;;11.40;99.90;;;;;;4999393;28;20037;-79
2021/06/02 03:22:03;;;;;;;6.03;4.80;;;11.40;99.90;;;;;;4999085;28;20034;-79
2021/06/02 03:24:28;;;;;;;5.85;5.05;;;11.30;99.90;;;;;;4999587;28;20030;-80
2021/06/02 03:27:03;;;;;;;9.27;5.85;;;11.30;99.90;;;;;;4998499;28;20077;-79
2021/06/02 03:30:04;;;;;;;6.85;4.88;;;11.30;99.90;;;;;;5015504;28;20081;-80
2021/06/02 03:32:59;;;;;;;8.40;4.97;;;11.20;99.90;;;;;;5000124;28;20334;-80
2021/06/02 03:35:40;;;;;;;7.07;5.22;;;11.20;99.90;;;;;;4998807;28;20034;-80
2021/06/02 03:38:28;;;;;;;7.40;5.22;;;11.30;99.90;;;;;;4998549;28;20410;-80
2021/06/02 03:41:32;;;;;;;6.53;5.93;;;11.30;99.90;;;;;;5014967;28;20030;-80
2021/06/02 03:44:37;;;;;;;6.68;5.97;;;11.30;99.90;;;;;;4996968;28;20028;-79
2021/06/02 03:47:21;;;;;;;8.77;5.13;;;11.30;1.00;;;;;;4987974;28;20487;-79
2021/06/02 03:50:07;;;;;;;10.18;5.95;;;11.50;99.90;;;;;;4995333;28;20503;-80
2021/06/02 03:52:45;;;;;;;11.80;6.32;;;11.70;99.90;;;;;;4996124;28;20347;-80
2021/06/02 03:55:56;;;;;;;9.68;5.95;;;12.00;99.90;;;;;;4995436;28;20015;-80
2021/06/02 03:58:35;;;;;;;7.60;5.90;;;12.10;99.90;;;;;;4994152;28;20023;-80
2021/06/02 04:01:29;;;;;;;8.65;6.25;;;12.40;99.90;;;;;;4993751;28;20066;-80
2021/06/02 04:04:12;;;;;;;9.07;6.38;;;12.70;99.90;;;;;;4992087;28;20045;-80
2021/06/02 04:06:45;;;;;;;6.50;5.78;;;13.20;99.90;;;;;;4995548;28;20023;-80
2021/06/02 04:09:19;;;;;;;6.13;5.53;;;13.50;99.90;;;;;;4995936;28;20049;-78
2021/06/02 04:11:56;;;;;;;11.23;6.70;;;13.70;99.90;;;;;;4996093;28;20204;-79
2021/06/02 04:14:33;;;;;;;6.18;5.35;;;13.70;99.90;;;;;;4995992;28;20022;-79
2021/06/02 04:17:00;;;;;;;8.00;5.05;;;14.00;99.90;;;;;;4995816;28;20044;-79
2021/06/02 04:19:33;;;;;;;7.93;5.80;;;14.20;99.90;;;;;;5011064;28;20019;-80
2021/06/02 04:22:05;;;;;;;8.32;5.65;;;14.20;99.90;;;;;;4994225;28;20088;-80
2021/06/02 04:24:33;;;;;;;10.85;5.40;;;14.30;99.90;;;;;;4994807;28;20026;-79
2021/06/02 04:26:59;;;;;;;9.90;5.35;;;14.20;99.90;;;;;;4994589;28;20029;-79
2021/06/02 04:29:26;;;;;;;10.52;5.28;;;14.50;40.40;;;;;;4995797;28;20034;-80
2021/06/02 04:31:58;;;;;;;8.70;4.55;;;14.70;1.00;;;;;;4996027;28;20518;-80
2021/06/02 04:34:26;;;;;;;9.95;5.22;;;15.00;99.90;;;;;;4994481;28;20475;-79
2021/06/02 04:36:55;;;;;;;7.35;5.15;;;15.40;1.00;;;;;;4995569;28;20030;-79
2021/06/02 04:39:21;;;;;;;5.82;5.15;;;15.70;1.00;;;;;;5010300;28;20026;-80
2021/06/02 04:41:47;;;;;;;10.70;5.65;;;15.70;99.90;;;;;;4995659;28;20022;-79
2021/06/02 04:44:15;;;;;;;6.75;4.88;;;15.90;1.00;;;;;;4994056;28;20019;-80
2021/06/02 04:46:41;;;;;;;7.07;4.95;;;16.10;99.90;;;;;;4993901;28;20030;-79
2021/06/02 04:49:07;;;;;;;8.75;5.63;;;16.50;99.90;;;;;;4994622;28;20053;-79
2021/06/02 04:51:42;;;;;;;8.23;4.68;;;16.50;1.00;;;;;;4994820;28;20026;-79
2021/06/02 04:54:42;;;;;;;7.82;4.88;;;17.10;1.00;;;;;;4994823;28;20069;-80
2021/06/02 04:57:46;;;;;;;6.13;4.70;;;17.60;1.00;;;;;;4993443;28;20034;-80
2021/06/02 05:00:43;;;;;;;7.75;4.40;;;18.40;1.00;;;;;;4986643;28;20498;-79
2021/06/02 05:03:46;;;;;;;5.50;4.75;;;19.20;99.90;;;;;;4993696;28;20034;-79
2021/06/02 05:06:54;;;;;;;4.47;3.63;;;19.50;30.10;;;;;;4993017;28;20030;-79
2021/06/02 05:09:47;;;;;;;6.22;3.50;;;20.60;1.00;;;;;;4995173;28;20030;-79
2021/06/02 05:12:28;;;;;;;4.13;3.70;;;20.80;99.90;;;;;;5007265;28;20025;-80
2021/06/02 05:15:07;;;;;;;11.65;4.70;;;20.10;99.90;;;;;;4993014;28;20030;-79
2021/06/02 05:18:11;;;;;;;6.88;3.75;;;19.80;99.90;;;;;;4993232;28;20398;-80
2021/06/02 05:24:04;;;;;;;4.85;4.35;;;19.80;99.90;;;;;;4992809;28;20421;-79
2021/06/02 05:26:57;;;;;;;5.22;3.80;;;19.80;99.90;;;;;;4994682;28;20030;-79
2021/06/02 05:29:55;;;;;;;9.52;4.10;;;20.10;99.90;;;;;;4992987;28;20022;-80
2021/06/02 05:33:07;;;;;;;53.58;7.65;;;21.10;99.90;;;;;;5009954;28;20050;-79
2021/06/02 05:36:00;;;;;;;5.70;4.43;;;20.90;99.90;;;;;;4995371;28;20018;-80
2021/06/02 05:38:54;;;;;;;4.97;4.47;;;21.70;99.90;;;;;;4996415;28;20029;-80
2021/06/02 05:41:57;;;;;;;7.63;4.55;;;21.20;99.90;;;;;;4994068;28;20173;-80
2021/06/02 05:45:00;;;;;;;11.75;4.32;;;20.60;99.90;;;;;;4993368;28;20029;-79
2021/06/02 05:47:42;;;;;;;15.02;5.97;;;20.20;99.90;;;;;;4994477;28;20101;-79
2021/06/02 05:50:46;;;;;;;15.27;5.00;;;20.40;99.90;;;;;;4994568;28;20109;-79
2021/06/02 05:53:36;;;;;;;15.00;6.45;;;22.60;99.90;;;;;;4992707;28;20026;-79
2021/06/02 05:56:29;;;;;;;43.10;9.48;;;23.40;99.90;;;;;;4992822;28;20076;-80
2021/06/02 05:59:27;;;;;;;12.80;5.20;;;22.40;99.90;;;;;;4993066;28;20022;-79
2021/06/02 06:02:36;;;;;;;8.60;4.70;;;23.00;99.90;;;;;;4994512;28;20030;-79
2021/06/02 06:05:32;;;;;;;9.77;5.32;;;23.40;99.90;;;;;;4992790;28;20026;-79
2021/06/02 06:08:34;;;;;;;28.77;5.97;;;22.80;99.90;;;;;;4993908;28;20078;-79
2021/06/02 06:11:20;;;;;;;8.05;4.70;;;22.70;99.90;;;;;;4993230;28;20059;-79
2021/06/02 06:14:14;;;;;;;11.93;5.28;;;23.20;99.90;;;;;;4994050;28;20034;-80
2021/06/02 06:16:47;;;;;;;12.00;4.03;;;23.30;99.90;;;;;;5008732;28;20026;-79
2021/06/02 06:19:32;;;;;;;7.78;4.10;;;23.50;99.90;;;;;;4991665;28;20514;-78
2021/06/02 06:22:31;;;;;;;11.75;4.00;;;22.50;99.90;;;;;;4992638;28;20471;-79
2021/06/02 06:25:12;;;;;;;8.65;3.63;;;21.70;99.90;;;;;;4992532;28;20026;-79
2021/06/02 06:27:46;;;;;;;6.90;3.80;;;20.40;99.90;;;;;;4993708;28;20023;-79
2021/06/02 06:30:17;;;;;;;6.30;4.13;;;20.10;99.90;;;;;;4995428;28;20382;-79
2021/06/02 06:32:45;;;;;;;8.98;4.20;;;19.50;99.90;;;;;;4996505;28;20023;-79
2021/06/02 06:35:13;;;;;;;4.80;4.25;;;19.10;99.90;;;;;;4995680;28;20061;-79
2021/06/02 06:37:43;;;;;;;5.32;3.83;;;18.60;99.90;;;;;;5011001;28;20053;-79
2021/06/02 06:40:12;;;;;;;6.40;3.60;;;18.40;99.90;;;;;;4995388;28;20030;-79
2021/06/02 06:42:41;;;;;;;6.47;4.10;;;18.40;99.90;;;;;;4993131;28;20022;-78
2021/06/02 06:45:16;;;;;;;5.82;4.20;;;18.20;99.90;;;;;;4995085;28;20035;-79
2021/06/02 06:47:43;;;;;;;5.50;3.75;;;18.20;99.90;;;;;;5009568;28;20019;-79
2021/06/02 06:50:10;;;;;;;8.05;4.07;;;18.40;99.90;;;;;;4993359;28;20233;-79
2021/06/02 06:52:38;;;;;;;9.65;3.55;;;18.20;99.90;;;;;;4994066;28;20026;-79
2021/06/02 06:55:06;;;;;;;5.20;3.38;;;18.40;99.90;;;;;;4993609;28;20084;-79
2021/06/02 06:57:33;;;;;;;7.25;3.63;;;18.60;99.90;;;;;;4991702;28;20080;-79
2021/06/02 07:00:00;;;;;;;8.75;2.92;;;18.70;99.90;;;;;;4992234;28;20031;-79
2021/06/02 07:02:27;;;;;;;6.40;3.55;;;18.80;99.90;;;;;;4993615;28;20087;-79
2021/06/02 07:04:53;;;;;;;8.55;3.45;;;18.80;99.90;;;;;;4992316;28;20033;-79
2021/06/02 07:07:20;;;;;;;5.00;3.58;;;18.80;99.90;;;;;;5008645;28;20069;-80
2021/06/02 07:09:46;;;;;;;6.28;3.13;;;18.90;99.90;;;;;;4993494;28;20081;-79
2021/06/02 07:12:16;;;;;;;10.35;3.85;;;18.90;99.90;;;;;;4991871;28;20027;-79
2021/06/02 07:14:42;;;;;;;5.10;3.40;;;19.10;99.90;;;;;;4997483;28;20109;-80
2021/06/02 07:17:09;;;;;;;5.82;3.58;;;19.10;99.90;;;;;;4992870;28;20402;-79
2021/06/02 07:19:43;;;;;;;6.55;4.10;;;19.20;99.90;;;;;;4993481;28;20026;-80
2021/06/02 07:22:10;;;;;;;9.95;4.03;;;19.40;99.90;;;;;;4995156;28;20034;-79
2021/06/02 07:24:36;;;;;;;5.63;3.53;;;19.50;99.90;;;;;;4997612;28;20529;-78
2021/06/02 07:27:02;;;;;;;6.57;3.60;;;19.50;99.90;;;;;;4994888;28;20104;-79
2021/06/02 07:29:28;;;;;;;7.25;3.50;;;19.50;99.90;;;;;;4994595;28;20022;-80
2021/06/02 07:31:54;;;;;;;10.52;3.80;;;19.70;99.90;;;;;;4998335;28;20034;-78
2021/06/02 07:34:21;;;;;;;10.25;3.47;;;19.70;99.90;;;;;;4997022;28;20018;-80
2021/06/02 07:36:50;;;;;;;4.25;2.60;;;19.90;99.90;;;;;;5013235;28;20085;-79
2021/06/02 07:39:16;;;;;;;4.70;2.88;;;19.80;99.90;;;;;;4998075;28;20077;-79
2021/06/02 07:41:41;;;;;;;10.20;3.45;;;20.20;99.90;;;;;;4997588;28;20105;-79
2021/06/02 07:44:07;;;;;;;6.75;2.67;;;20.40;99.90;;;;;;5012465;28;20026;-78
2021/06/02 07:46:34;;;;;;;4.25;2.50;;;20.30;99.90;;;;;;4997115;28;20027;-80
2021/06/02 07:49:02;;;;;;;5.13;3.03;;;20.40;99.90;;;;;;4996080;28;20372;-79
2021/06/02 07:51:27;;;;;;;9.25;3.22;;;20.60;99.90;;;;;;4997186;28;20025;-79
2021/06/02 07:53:54;;;;;;;6.95;2.08;;;20.70;99.90;;;;;;4997823;28;20367;-79
2021/06/02 07:56:19;;;;;;;3.67;2.70;;;20.90;99.90;;;;;;4999761;28;20398;-79
2021/06/02 07:58:45;;;;;;;6.43;2.60;;;21.10;99.90;;;;;;4999486;28;20062;-79
2021/06/02 08:01:11;;;;;;;1.70;1.60;;;21.10;99.90;;;;;;4997663;28;20058;-79
2021/06/02 08:03:36;;;;;;;5.50;3.10;;;21.10;99.90;;;;;;4996619;28;20069;-80
2021/06/02 08:06:02;;;;;;;3.17;1.88;;;21.20;99.90;;;;;;4997661;28;20026;-80
2021/06/02 08:08:27;;;;;;;2.97;1.92;;;21.30;99.90;;;;;;4999687;28;20080;-79
2021/06/02 08:10:53;;;;;;;3.08;2.22;;;21.50;99.90;;;;;;5013385;28;20031;-79
2021/06/02 08:13:19;;;;;;;2.45;2.03;;;21.30;99.90;;;;;;4997598;28;20029;-79
2021/06/02 08:15:44;;;;;;;10.52;2.50;;;21.60;99.90;;;;;;4995541;28;20069;-80
2021/06/02 08:18:10;;;;;;;4.78;2.75;;;21.70;99.90;;;;;;5011988;28;20037;-78
2021/06/02 08:20:36;;;;;;;4.22;1.58;;;21.70;99.90;;;;;;4996232;28;20053;-79
2021/06/02 08:23:01;;;;;;;4.25;2.05;;;21.90;99.90;;;;;;4996916;28;20055;-78
2021/06/02 08:25:27;;;;;;;3.45;2.10;;;21.90;99.00;;;;;;4997169;28;20109;-79
2021/06/02 08:27:53;;;;;;;3.78;1.90;;;22.00;98.60;;;;;;4997541;28;20022;-79
2021/06/02 08:30:19;;;;;;;3.58;1.80;;;22.10;99.70;;;;;;5009999;28;20010;-79
2021/06/02 08:32:45;;;;;;;2.42;1.60;;;22.10;98.40;;;;;;5008837;28;20121;-79
2021/06/02 08:35:14;;;;;;;5.25;2.25;;;22.40;98.70;;;;;;4997843;28;20394;-79
2021/06/02 08:37:40;;;;;;;3.05;2.20;;;22.60;96.70;;;;;;4997083;28;20475;-80
2021/06/02 08:40:06;;;;;;;7.80;2.38;;;22.60;99.60;;;;;;5012401;28;20068;-80
2021/06/02 08:42:33;;;;;;;7.80;2.38;;;22.40;93.90;;;;;;4995341;28;20019;-80
2021/06/02 08:44:59;;;;;;;6.50;2.17;;;22.70;94.40;;;;;;4994106;28;20030;-79
2021/06/02 08:47:24;;;;;;;4.72;2.13;;;22.70;92.30;;;;;;4994024;28;20494;-79
2021/06/02 08:49:50;;;;;;;4.45;2.15;;;23.00;91.00;;;;;;4995545;28;20032;-79
2021/06/02 08:52:16;;;;;;;3.10;1.80;;;23.10;87.10;;;;;;4993722;28;20282;-79
2021/06/02 08:54:41;;;;;;;5.18;2.30;;;23.30;83.70;;;;;;4994166;28;20387;-79
2021/06/02 08:57:09;;;;;;;3.38;2.17;;;23.20;86.50;;;;;;4995350;28;20022;-79
2021/06/02 08:59:36;;;;;;;2.45;1.90;;;23.40;83.70;;;;;;4993325;28;20085;-80
2021/06/02 09:02:03;;;;;;;6.22;2.47;;;23.50;81.80;;;;;;4993319;28;20370;-79
2021/06/02 09:04:31;;;;;;;3.85;1.92;;;23.50;79.40;;;;;;4993973;28;20109;-79
2021/06/02 09:06:58;;;;;;;6.40;2.70;;;23.60;79.10;;;;;;4994847;28;20030;-78
2021/06/02 09:09:25;;;;;;;2.15;1.73;;;23.40;74.10;;;;;;5010029;28;20019;-79
2021/06/02 09:11:52;;;;;;;6.22;2.42;;;23.70;68.20;;;;;;4994297;28;20048;-78
2021/06/02 09:14:37;;;;;;;3.03;2.00;;;23.60;65.40;;;;;;4993356;28;20026;-79
2021/06/02 09:17:08;;;;;;;4.30;2.00;;;23.60;63.10;;;;;;4993457;28;20120;-79
2021/06/02 09:19:41;;;;;;;4.47;1.80;;;23.60;45.90;;;;;;4995222;28;20479;-78
2021/06/02 09:22:16;;;;;;;3.72;2.05;;;23.80;49.00;;;;;;4995599;28;20045;-78
2021/06/02 09:24:44;;;;;;;5.43;2.45;;;23.80;41.60;;;;;;4995097;28;20022;-79
2021/06/02 09:27:10;;;;;;;5.18;1.63;;;24.10;38.00;;;;;;4993449;28;20128;-79
2021/06/02 09:29:56;;;;;;;3.00;1.42;;;24.10;34.40;;;;;;4994908;28;20031;-79
2021/06/02 09:32:23;;;;;;;5.88;1.52;;;24.20;27.80;;;;;;4995049;28;20018;-78
2021/06/02 09:34:58;;;;;;;3.80;1.65;;;24.40;24.30;;;;;;4995217;28;20407;-80
2021/06/02 09:37:23;;;;;;;3.28;1.30;;;24.40;26.70;;;;;;4993743;28;20040;-79
2021/06/02 09:39:49;;;;;;;6.35;1.58;;;24.40;26.20;;;;;;4994969;28;20395;-79
2021/06/02 09:42:26;;;;;;;3.50;1.70;;;24.40;25.70;;;;;;4994731;28;20097;-78
2021/06/02 09:45:14;;;;;;;4.05;1.83;;;24.50;25.80;;;;;;4994187;28;20026;-80
2021/06/02 09:47:53;;;;;;;1.80;1.50;;;24.50;22.60;;;;;;4994024;28;20031;-79
2021/06/02 09:50:36;;;;;;;1.98;1.55;;;24.40;21.80;;;;;;4995152;28;20023;-79
2021/06/02 09:53:04;;;;;;;2.17;1.70;;;24.50;19.20;;;;;;5008961;28;20093;-78
2021/06/02 09:55:32;;;;;;;5.47;3.25;;;24.60;20.40;;;;;;5009269;28;20023;-79
2021/06/02 09:58:01;;;;;;;4.55;2.67;;;24.50;21.70;;;;;;4994516;28;20022;-79
2021/06/02 10:00:28;;;;;;;3.10;1.58;;;24.50;21.30;;;;;;4992809;28;20559;-80
2021/06/02 10:02:59;;;;;;;4.28;1.90;;;24.50;27.80;;;;;;5009699;28;20065;-80
2021/06/02 10:05:37;;;;;;;5.47;1.50;;;24.70;21.80;;;;;;4994661;28;20030;-80
2021/06/02 10:08:03;;;;;;;2.00;1.38;;;24.70;19.10;;;;;;4995751;28;20022;-81
2021/06/02 10:10:29;;;;;;;2.03;1.40;;;24.80;18.60;;;;;;4996757;28;20031;-79
2021/06/02 10:13:00;;;;;;;3.85;1.70;;;25.40;14.80;;;;;;4995887;28;20041;-80
2021/06/02 10:15:28;;;;;;;2.38;1.67;;;25.40;14.50;;;;;;4994795;28;20026;-82
2021/06/02 10:17:53;;;;;;;2.40;1.45;;;25.50;11.40;;;;;;4995095;28;20503;-78
2021/06/02 10:20:19;;;;;;;1.48;1.38;;;25.50;10.40;;;;;;4995724;28;20058;-78
2021/06/02 10:22:55;;;;;;;3.10;1.50;;;25.50;8.60;;;;;;4995234;28;20060;-84
2021/06/02 10:25:24;;;;;;;2.55;1.27;;;25.40;16.40;;;;;;4993624;28;20023;-80
2021/06/02 10:27:54;;;;;;;1.85;1.70;;;25.10;6.40;;;;;;5004422;28;20022;-78
2021/06/02 10:30:22;;;;;;;3.90;1.30;;;25.30;5.30;;;;;;5004390;28;20170;-78
2021/06/02 10:32:49;;;;;;;6.78;1.42;;;25.40;4.10;;;;;;4992169;28;20030;-79
2021/06/02 10:35:14;;;;;;;4.00;2.05;;;25.60;3.90;;;;;;5025145;23;20046;-72
2021/06/02 10:37:41;;;;;;;2.17;1.35;;;25.40;3.40;;;;;;4998071;28;20038;-73
2021/06/02 10:40:11;;;;;;;2.53;1.30;;;25.00;1.30;;;;;;5000745;28;20037;-73
2021/06/02 10:42:43;;;;;;;2.83;1.50;;;25.00;1.10;;;;;;5000499;28;20463;-73
2021/06/02 10:45:31;;;;;;;1.90;1.65;;;25.40;1.50;;;;;;5001661;28;20434;-74
2021/06/02 10:47:58;;;;;;;4.78;1.30;;;25.60;1.00;;;;;;5012708;28;20026;-73
2021/06/02 10:50:36;;;;;;;3.53;1.40;;;25.80;1.00;;;;;;4996303;28;20022;-72
2021/06/02 10:53:18;;;;;;;1.75;1.48;;;25.70;1.00;;;;;;4995718;28;20504;-73
2021/06/02 10:55:45;;;;;;;4.00;1.85;;;25.70;1.00;;;;;;5008028;28;20026;-71
2021/06/02 10:58:21;;;;;;;1.92;1.77;;;25.70;1.00;;;;;;4996105;28;20450;-72
2021/06/02 11:00:53;;;;;;;9.48;2.40;;;25.70;1.00;;;;;;4995922;28;20109;-73
2021/06/02 11:03:28;;;;;;;2.15;1.40;;;25.70;1.00;;;;;;4995407;28;20027;-73
2021/06/02 11:06:13;;;;;;;2.50;1.45;;;25.60;1.00;;;;;;4998633;28;20034;-72
2021/06/02 11:08:50;;;;;;;3.03;1.38;;;25.50;1.00;;;;;;5000831;28;20514;-73
2021/06/02 11:11:29;;;;;;;1.77;1.35;;;25.40;1.00;;;;;;4999712;28;20073;-72
2021/06/02 11:14:13;;;;;;;1.63;1.17;;;25.80;1.00;;;;;;4999063;28;20055;-74
2021/06/02 11:16:47;;;;;;;1.92;1.33;;;26.10;1.00;;;;;;4999055;28;20101;-72
2021/06/02 11:19:22;;;;;;;2.08;1.13;;;26.00;1.00;;;;;;4999750;28;20030;-73
2021/06/02 11:21:53;;;;;;;2.92;1.42;;;25.90;1.00;;;;;;4999935;28;20030;-74
2021/06/02 11:24:31;;;;;;;3.42;1.35;;;25.80;1.00;;;;;;4998775;28;20404;-72
2021/06/02 11:27:17;;;;;;;1.85;1.40;;;25.40;1.00;;;;;;4998343;28;20037;-73
2021/06/02 11:29:51;;;;;;;4.00;1.63;;;25.90;1.00;;;;;;4999320;28;20038;-73
2021/06/02 11:32:31;;;;;;;2.40;1.92;;;26.20;1.00;;;;;;4997219;28;20147;-73
2021/06/02 11:35:03;;;;;;;1.63;1.10;;;25.90;1.00;;;;;;4998775;28;20390;-74
2021/06/02 11:37:31;;;;;;;1.50;1.40;;;25.60;1.00;;;;;;4997919;28;20026;-73
2021/06/02 11:39:59;;;;;;;2.85;1.42;;;25.60;1.00;;;;;;4998372;28;20558;-74
2021/06/02 11:42:30;;;;;;;2.35;1.38;;;26.00;1.00;;;;;;4998078;28;20034;-72
2021/06/02 11:45:06;;;;;;;3.53;1.42;;;26.40;1.00;;;;;;4999087;28;20046;-73
2021/06/02 11:47:32;;;;;;;2.72;1.50;;;26.70;1.00;;;;;;4998890;28;20022;-73
2021/06/02 11:50:22;;;;;;;1.52;1.33;;;26.70;1.00;;;;;;4998571;28;20030;-74
2021/06/02 11:52:58;;;;;;;2.58;1.80;;;26.60;1.00;;;;;;4998395;28;20031;-73
2021/06/02 11:55:25;;;;;;;1.88;1.52;;;26.50;1.00;;;;;;4999601;28;20030;-74
2021/06/02 11:57:52;;;;;;;2.88;1.50;;;26.40;1.00;;;;;;4998441;28;20395;-73
2021/06/02 12:00:25;;;;;;;3.08;1.20;;;26.30;1.00;;;;;;4997892;28;20034;-72
2021/06/02 12:03:09;;;;;;;1.40;1.30;;;26.40;1.00;;;;;;5015749;28;20034;-74
2021/06/02 12:05:37;;;;;;;2.42;1.55;;;26.70;1.00;;;;;;5001632;28;20026;-73
2021/06/02 12:08:08;;;;;;;3.88;1.80;;;26.90;1.00;;;;;;5001828;28;20099;-74
2021/06/02 12:10:42;;;;;;;4.32;1.48;;;26.90;1.00;;;;;;4998376;28;20457;-72
2021/06/02 12:13:17;;;;;;;2.35;1.52;;;26.90;1.00;;;;;;4998138;28;20034;-73
2021/06/02 12:15:47;;;;;;;1.40;1.30;;;27.00;1.00;;;;;;4995208;28;20041;-73
2021/06/02 12:18:28;;;;;;;2.83;1.50;;;26.80;1.00;;;;;;4997822;28;20109;-72
2021/06/02 12:21:16;;;;;;;2.88;1.45;;;26.60;1.00;;;;;;4996527;28;20093;-74
2021/06/02 12:24:02;;;;;;;7.53;1.70;;;26.80;1.00;;;;;;5000444;28;20467;-72
2021/06/02 12:26:46;;;;;;;2.47;1.80;;;26.70;1.00;;;;;;4999598;28;20497;-72
2021/06/02 12:29:14;;;;;;;1.75;1.20;;;27.10;1.00;;;;;;5003347;28;20022;-73
2021/06/02 12:31:45;;;;;;;1.85;1.25;;;26.90;1.00;;;;;;5001001;28;20383;-73
2021/06/02 12:34:12;;;;;;;;;;;26.80;1.00;;;;;;4999936;28;20026;-73
2021/06/02 12:37:03;;;;;;;1.30;1.20;;;26.80;1.00;;;;;;4998034;28;19917;-74
2021/06/02 12:39:32;;;;;;;3.58;1.88;;;26.40;1.00;;;;;;4999051;28;20034;-72
2021/06/02 12:42:01;;;;;;;1.25;1.10;;;26.40;1.00;;;;;;4998566;28;20118;-73
2021/06/02 12:44:29;;;;;;;2.38;1.27;;;26.90;1.00;;;;;;4996564;28;20491;-72
2021/06/02 12:47:24;;;;;;;2.40;1.50;;;26.90;1.00;;;;;;4998404;28;20027;-73
2021/06/02 12:49:55;;;;;;;2.45;1.23;;;26.80;1.00;;;;;;4991902;28;20491;-73
2021/06/02 12:52:20;;;;;;;;;;;27.00;1.00;;;;;;4998493;28;20109;-74
2021/06/02 12:54:46;;;;;;;4.10;1.25;;;26.90;1.00;;;;;;5001611;28;19937;-72
2021/06/02 12:57:11;;;;;;;2.45;1.20;;;26.90;1.00;;;;;;5006300;28;20026;-72
2021/06/02 12:59:39;;;;;;;3.03;1.30;;;26.90;1.00;;;;;;5000871;28;20022;-72
2021/06/02 13:02:07;;;;;;;3.70;1.27;;;27.10;1.00;;;;;;5002250;28;20026;-72
2021/06/02 13:04:34;;;;;;;1.27;0.95;;;27.30;1.00;;;;;;5011043;28;20029;-74
2021/06/02 13:07:00;;;;;;;1.92;1.10;;;27.10;1.00;;;;;;5008498;28;20022;-72
2021/06/02 13:09:27;;;;;;;2.67;0.93;;;26.70;1.00;;;;;;5004591;28;20018;-74
2021/06/02 13:11:54;;;;;;;2.33;1.08;;;27.00;1.00;;;;;;4997178;28;20069;-73
2021/06/02 13:14:31;;;;;;;3.22;1.00;;;27.10;1.00;;;;;;4999117;28;20073;-73
2021/06/02 13:16:56;;;;;;;1.00;0.90;;;26.60;1.00;;;;;;5002619;28;20041;-74
2021/06/02 13:19:37;;;;;;;1.17;1.05;;;27.00;1.00;;;;;;5000483;28;20121;-73
2021/06/02 13:22:05;;;;;;;1.83;1.08;;;27.10;1.00;;;;;;5000134;28;20046;-73
2021/06/02 13:24:39;;;;;;;3.25;1.10;;;27.10;1.00;;;;;;5002128;28;20030;-74
2021/06/02 13:27:06;;;;;;;1.70;1.20;;;27.10;1.00;;;;;;5003574;28;20018;-73
2021/06/02 13:29:32;;;;;;;1.92;1.30;;;27.00;1.00;;;;;;5005788;28;20030;-75
2021/06/02 13:32:00;;;;;;;1.38;0.90;;;26.60;1.00;;;;;;4997259;28;20034;-72
2021/06/02 13:34:36;;;;;;;2.28;1.77;;;26.90;1.00;;;;;;5000581;28;20026;-73